Time;durP1;ratioP1;P1;durP2;ratioP2;P2;SDS_P1;SDS_P2;PMS_P1;PMS_P2;Temp;Humidity;BMP_temperature;BMP_pressure;BME280_temperature;BME280_humidity;BME280_pressure;Samples;Min_cycle;Max_cycle;Signal;HPM_P1;HPM_P2
2021/03/05 00:00:33;;;;;;;111.62;41.85;;;;;;;2.81;76.38;99487.88;1683191;85;21467;-64
2021/03/05 00:03:03;;;;;;;89.10;33.20;;;;;;;2.75;76.10;99493.17;1683183;84;21222;-65
2021/03/05 00:05:34;;;;;;;79.53;31.77;;;;;;;2.55;77.52;99465.72;1690562;84;21213;-64
2021/03/05 00:08:04;;;;;;;99.65;37.53;;;;;;;2.62;76.66;99485.56;1690758;84;21226;-64
2021/03/05 00:10:34;;;;;;;93.87;35.58;;;;;;;2.54;76.12;99480.91;1690577;84;21191;-65
2021/03/05 00:13:03;;;;;;;97.33;37.85;;;;;;;2.43;75.90;99485.40;1705433;78;21208;-73
2021/03/05 00:15:37;;;;;;;83.33;33.65;;;;;;;2.40;75.87;99495.84;1713930;83;21206;-73
2021/03/05 00:18:06;;;;;;;72.22;28.00;;;;;;;2.26;75.95;99495.59;1713904;83;21162;-73
2021/03/05 00:20:37;;;;;;;84.28;30.17;;;;;;;2.26;75.95;99495.59;1710479;83;21219;-73
2021/03/05 00:23:04;;;;;;;74.50;28.77;;;;;;;2.24;76.34;99498.64;1702489;83;21173;-73
2021/03/05 00:25:32;;;;;;;78.00;30.27;;;;;;;2.22;77.39;99512.09;1708032;84;21173;-73
2021/03/05 00:28:00;;;;;;;76.82;29.98;;;;;;;2.17;76.51;99503.50;1715721;77;21222;-63
2021/03/05 00:30:29;;;;;;;69.55;28.45;;;;;;;2.10;76.66;99494.93;1752842;81;21115;-64
2021/03/05 00:32:57;;;;;;;80.87;32.20;;;;;;;2.10;76.66;99494.93;1752675;81;21174;-64
2021/03/05 00:35:25;;;;;;;80.97;33.25;;;;;;;2.08;76.40;99498.43;1726466;83;21184;-64
2021/03/05 00:37:53;;;;;;;82.40;31.25;;;;;;;2.03;76.48;99500.23;1738914;82;21223;-63
2021/03/05 00:40:22;;;;;;;84.00;32.85;;;;;;;1.96;76.14;99499.89;1726468;82;21187;-62
2021/03/05 00:42:51;;;;;;;82.97;31.57;;;;;;;1.91;76.67;99500.36;1734573;81;21204;-71
2021/03/05 00:45:21;;;;;;;76.25;28.65;;;;;;;1.84;76.72;99499.16;1731078;82;21186;-69
2021/03/05 00:47:50;;;;;;;79.58;29.25;;;;;;;1.78;76.62;99500.52;1713012;83;21197;-70
2021/03/05 00:50:20;;;;;;;81.90;31.60;;;;;;;1.76;78.04;99499.67;1731142;81;22336;-70
2021/03/05 00:52:50;;;;;;;88.92;32.25;;;;;;;1.74;77.53;99506.61;1716348;82;21584;-70
2021/03/05 00:55:19;;;;;;;76.72;30.65;;;;;;;1.73;78.12;99498.41;1710245;82;21231;-70
2021/03/05 00:57:48;;;;;;;64.85;26.10;;;;;;;1.73;78.68;99498.41;1718877;79;21072;-64
2021/03/05 01:00:18;;;;;;;71.53;27.95;;;;;;;1.70;78.05;99497.13;1773374;80;21373;-63
2021/03/05 01:02:47;;;;;;;72.40;27.55;;;;;;;1.70;78.66;99499.72;1772980;79;22104;-65
2021/03/05 01:05:16;;;;;;;85.22;32.20;;;;;;;1.67;78.22;99492.83;1743101;80;21609;-62
2021/03/05 01:07:44;;;;;;;89.87;34.25;;;;;;;1.63;77.85;99490.29;1775688;80;21164;-63
2021/03/05 01:10:14;;;;;;;86.08;32.25;;;;;;;1.58;77.82;99486.89;1742076;82;21134;-64
2021/03/05 01:12:42;;;;;;;78.80;31.25;;;;;;;1.55;77.76;99481.75;1757864;78;21138;-68
2021/03/05 01:15:10;;;;;;;78.00;29.57;;;;;;;1.57;78.34;99494.27;1789129;80;21834;-70
2021/03/05 01:17:37;;;;;;;59.75;25.50;;;;;;;1.58;79.36;99499.87;1788979;80;21712;-70
2021/03/05 01:20:14;;;;;;;73.90;30.95;;;;;;;1.62;79.26;99501.56;1788852;80;21613;-70
2021/03/05 01:22:41;;;;;;;71.95;27.32;;;;;;;1.63;79.47;99496.78;1764953;81;21184;-70
2021/03/05 01:25:13;;;;;;;78.02;29.48;;;;;;;1.63;79.15;99503.27;1787046;80;21151;-71
2021/03/05 01:27:40;;;;;;;85.45;32.00;;;;;;;1.65;79.04;99504.11;1767075;78;22238;-66
2021/03/05 01:30:11;;;;;;;48.50;19.95;;;;;;;1.67;79.11;99507.55;1781789;80;21182;-64
2021/03/05 01:32:40;;;;;;;73.92;29.12;;;;;;;1.67;78.68;99507.55;1781935;80;21634;-64
2021/03/05 01:35:11;;;;;;;68.35;25.62;;;;;;;1.70;79.40;99499.72;1781734;80;21189;-63
2021/03/05 01:37:40;;;;;;;60.98;23.95;;;;;;;1.72;79.75;99507.06;1781707;80;21194;-64
2021/03/05 01:40:13;;;;;;;75.90;28.60;;;;;;;1.74;79.12;99500.12;1781564;80;22138;-64
2021/03/05 01:42:41;;;;;;;56.73;22.95;;;;;;;1.75;80.10;99505.75;1778702;77;21231;-68
2021/03/05 01:45:14;;;;;;;68.05;28.35;;;;;;;1.74;79.66;99509.20;1738274;82;21190;-70
2021/03/05 01:47:44;;;;;;;76.05;29.02;;;;;;;1.75;79.76;99507.05;1770532;81;21629;-71
2021/03/05 01:50:17;;;;;;;61.95;26.25;;;;;;;1.80;80.23;99507.00;1770655;81;21187;-70
2021/03/05 01:52:50;;;;;;;75.05;27.60;;;;;;;1.81;79.49;99509.55;1738398;82;21358;-70
2021/03/05 01:55:20;;;;;;;68.80;27.37;;;;;;;1.84;79.36;99509.95;1770457;81;21186;-69
2021/03/05 01:57:47;;;;;;;68.92;27.67;;;;;;;1.80;79.31;99507.84;1773301;77;21238;-65
2021/03/05 02:00:31;;;;;;;59.18;24.85;;;;;;;1.81;78.58;99510.00;1781626;79;22049;-64
2021/03/05 02:02:59;;;;;;;72.95;26.52;;;;;;;1.84;79.78;99510.84;1781633;80;21244;-64
2021/03/05 02:05:28;;;;;;;67.15;26.57;;;;;;;1.85;79.22;99515.14;1781836;80;21328;-64
2021/03/05 02:07:56;;;;;;;66.57;25.40;;;;;;;1.84;78.33;99517.33;1781613;80;21613;-63
2021/03/05 02:10:24;;;;;;;54.45;22.17;;;;;;;1.85;78.61;99513.84;1781660;79;21183;-62
2021/03/05 02:12:52;;;;;;;57.38;23.10;;;;;;;1.86;78.14;99518.17;1769875;77;21201;-63
2021/03/05 02:15:20;;;;;;;53.15;20.77;;;;;;;1.87;77.94;99523.77;1724567;83;21120;-63
2021/03/05 02:18:27;;;;;;;50.43;20.75;;;;;;;1.85;77.85;99524.23;1738074;82;21414;-64
2021/03/05 02:21:19;;;;;;;53.48;21.15;;;;;;;1.85;77.12;99529.42;1729318;81;21160;-64
2021/03/05 02:24:26;;;;;;;50.10;21.55;;;;;;;1.84;76.81;99533.32;1799468;79;21130;-64
2021/03/05 02:27:46;;;;;;;52.25;19.23;;;;;;;1.80;77.26;99535.11;1801194;78;21094;-63
2021/03/05 02:30:54;;;;;;;56.28;21.37;;;;;;;1.79;77.50;99535.97;1771500;81;21102;-72
2021/03/05 02:33:31;;;;;;;52.40;20.88;;;;;;;1.81;76.33;99534.66;1771507;81;21508;-72
2021/03/05 02:35:59;;;;;;;42.58;18.23;;;;;;;1.81;75.62;99541.16;1771559;81;21106;-72
2021/03/05 02:38:27;;;;;;;47.13;18.15;;;;;;;1.81;76.72;99542.00;1710635;82;21131;-72
2021/03/05 02:40:56;;;;;;;54.20;19.75;;;;;;;1.81;76.25;99543.30;1682030;84;21563;-71
2021/03/05 02:43:24;;;;;;;51.98;19.73;;;;;;;1.80;75.20;99548.09;1678170;83;21252;-63
2021/03/05 02:46:05;;;;;;;43.90;17.37;;;;;;;1.80;75.19;99551.98;1722708;83;22358;-64
2021/03/05 02:48:44;;;;;;;47.13;18.35;;;;;;;1.76;74.81;99552.89;1692783;83;21571;-63
2021/03/05 02:51:13;;;;;;;41.30;16.93;;;;;;;1.79;75.00;99556.73;1758421;81;21212;-64
2021/03/05 02:54:33;;;;;;;42.20;16.13;;;;;;;1.83;74.69;99555.84;1775034;79;23425;-62
2021/03/05 02:57:02;;;;;;;47.13;18.40;;;;;;;1.80;74.58;99555.88;1743288;81;21199;-64
2021/03/05 02:59:30;;;;;;;47.35;17.92;;;;;;;1.80;74.58;99555.88;1710144;80;21549;-70
2021/03/05 03:01:57;;;;;;;38.25;16.07;;;;;;;1.79;74.99;99564.53;1686843;84;21225;-70
2021/03/05 03:04:27;;;;;;;45.00;17.77;;;;;;;1.79;74.70;99572.31;1687040;85;21204;-71
2021/03/05 03:06:56;;;;;;;33.05;14.40;;;;;;;1.84;75.62;99567.96;1687029;85;21204;-70
2021/03/05 03:09:24;;;;;;;37.90;16.73;;;;;;;1.85;75.91;99574.86;1742696;82;21198;-70
2021/03/05 03:11:52;;;;;;;38.50;15.00;;;;;;;1.85;74.70;99577.45;1742383;82;21381;-71
2021/03/05 03:14:20;;;;;;;42.75;15.43;;;;;;;1.87;75.70;99578.30;1703285;81;21206;-62
2021/03/05 03:16:47;;;;;;;44.53;16.35;;;;;;;1.84;75.03;99580.94;1692745;84;21206;-61
2021/03/05 03:19:18;;;;;;;44.77;17.12;;;;;;;1.86;74.70;99594.77;1667335;84;21230;-61
2021/03/05 03:21:46;;;;;;;46.15;17.45;;;;;;;1.85;74.99;99590.88;1717475;83;21186;-62
2021/03/05 03:24:15;;;;;;;45.48;17.17;;;;;;;1.85;74.25;99592.18;1691964;84;21258;-63
2021/03/05 03:26:43;;;;;;;40.17;16.70;;;;;;;1.84;74.30;99591.33;1690146;84;22086;-62
2021/03/05 03:29:11;;;;;;;47.80;17.98;;;;;;;1.82;73.87;99595.67;1615309;80;21241;-72
2021/03/05 03:31:39;;;;;;;40.75;16.07;;;;;;;1.78;73.93;99596.57;1576437;91;21224;-71
2021/03/05 03:34:07;;;;;;;45.50;16.73;;;;;;;1.80;75.30;99594.83;1576856;91;21266;-71
2021/03/05 03:36:37;;;;;;;35.75;15.25;;;;;;;1.81;74.30;99599.13;1576843;90;21845;-72
2021/03/05 03:39:06;;;;;;;41.45;15.08;;;;;;;1.78;74.75;99587.93;1576821;91;21232;-71
2021/03/05 03:41:35;;;;;;;38.10;15.00;;;;;;;1.82;74.66;99602.16;1576879;91;21731;-72
2021/03/05 03:44:07;;;;;;;43.08;16.48;;;;;;;1.83;74.05;99607.77;1627912;84;21214;-62
2021/03/05 03:46:42;;;;;;;40.98;16.77;;;;;;;1.82;74.59;99606.06;1635964;87;21218;-61
2021/03/05 03:49:14;;;;;;;47.83;16.75;;;;;;;1.80;73.95;99618.19;1636077;87;21270;-61
2021/03/05 03:51:46;;;;;;;43.87;17.15;;;;;;;1.75;73.97;99615.20;1636044;87;21241;-61
2021/03/05 03:54:15;;;;;;;36.70;15.15;;;;;;;1.76;75.82;99621.69;1636149;87;21170;-61
2021/03/05 03:56:43;;;;;;;40.85;16.52;;;;;;;1.76;76.06;99625.58;1636124;86;21701;-62
2021/03/05 03:59:15;;;;;;;45.45;17.07;;;;;;;1.79;77.28;99622.94;1658392;80;21226;-70
2021/03/05 04:01:47;;;;;;;44.58;18.48;;;;;;;1.78;77.28;99627.73;1668106;85;22248;-71
2021/03/05 04:04:15;;;;;;;40.20;16.90;;;;;;;1.75;77.30;99629.48;1667973;86;21215;-69
2021/03/05 04:06:46;;;;;;;36.90;15.13;;;;;;;1.73;78.27;99626.91;1667504;86;21172;-69
2021/03/05 04:09:14;;;;;;;43.55;17.82;;;;;;;1.73;78.78;99627.36;1642851;86;21375;-71
2021/03/05 04:11:43;;;;;;;51.02;18.65;;;;;;;1.73;79.46;99623.47;1667776;85;21247;-70
2021/03/05 04:14:11;;;;;;;36.38;14.65;;;;;;;1.68;79.90;99622.21;1658303;80;22268;-62
2021/03/05 04:16:38;;;;;;;46.00;18.48;;;;;;;1.62;79.78;99626.15;1650626;86;21656;-62
2021/03/05 04:19:07;;;;;;;52.40;19.67;;;;;;;1.61;80.38;99627.00;1624106;87;21199;-63
2021/03/05 04:21:36;;;;;;;40.43;16.75;;;;;;;1.57;80.68;99622.73;1647151;86;21200;-63
2021/03/05 04:24:05;;;;;;;47.13;17.87;;;;;;;1.54;80.58;99627.93;1676248;85;21171;-62
2021/03/05 04:26:33;;;;;;;39.48;17.62;;;;;;;1.51;81.03;99630.56;1649886;86;21382;-61
2021/03/05 04:29:02;;;;;;;49.73;18.98;;;;;;;1.49;81.05;99624.52;1639529;80;21247;-72
2021/03/05 04:31:30;;;;;;;48.45;18.80;;;;;;;1.48;81.50;99633.20;1651305;86;21183;-73
2021/03/05 04:33:58;;;;;;;39.83;15.38;;;;;;;1.46;81.81;99628.86;1651229;86;21247;-72
2021/03/05 04:36:28;;;;;;;52.15;20.45;;;;;;;1.44;81.88;99633.20;1651505;86;21409;-72
2021/03/05 04:38:57;;;;;;;45.75;17.30;;;;;;;1.46;82.29;99642.28;1651057;85;21460;-72
2021/03/05 04:41:25;;;;;;;55.63;19.60;;;;;;;1.43;82.33;99644.47;1664906;85;22268;-71
2021/03/05 04:43:54;;;;;;;48.13;18.87;;;;;;;1.48;82.55;99646.17;1683851;81;21566;-61
2021/03/05 04:46:21;;;;;;;52.25;18.90;;;;;;;1.50;83.09;99650.91;1701317;84;21178;-61
2021/03/05 04:48:50;;;;;;;47.03;19.23;;;;;;;1.49;82.87;99645.28;1673770;84;21186;-62
2021/03/05 04:51:18;;;;;;;42.43;17.07;;;;;;;1.51;83.27;99645.69;1681942;85;21373;-62
2021/03/05 04:53:46;;;;;;;50.83;19.67;;;;;;;1.50;83.36;99648.31;1681787;85;21216;-61
2021/03/05 04:56:14;;;;;;;45.67;16.70;;;;;;;1.51;83.12;99653.92;1681847;84;21219;-62
2021/03/05 04:58:42;;;;;;;52.45;18.90;;;;;;;1.50;83.84;99654.81;1689925;82;21707;-72
2021/03/05 05:01:10;;;;;;;54.03;19.42;;;;;;;1.49;83.45;99653.06;1710286;82;21208;-72
2021/03/05 05:03:38;;;;;;;46.15;18.50;;;;;;;1.49;83.36;99647.88;1690538;83;21468;-71
2021/03/05 05:06:05;;;;;;;47.33;17.62;;;;;;;1.49;83.33;99653.06;1710126;83;21649;-71
2021/03/05 05:08:33;;;;;;;51.50;18.82;;;;;;;1.46;83.03;99661.30;1720105;82;21135;-70
2021/03/05 05:11:02;;;;;;;48.73;17.10;;;;;;;1.48;83.38;99666.93;1709969;83;21943;-72
2021/03/05 05:13:32;;;;;;;51.77;20.10;;;;;;;1.47;83.22;99667.34;1707025;80;21266;-63
2021/03/05 05:16:00;;;;;;;53.65;19.77;;;;;;;1.45;83.10;99671.27;1681029;85;21376;-63
2021/03/05 05:18:28;;;;;;;47.98;18.02;;;;;;;1.45;83.16;99668.67;1737435;82;21563;-63
2021/03/05 05:20:56;;;;;;;50.80;19.48;;;;;;;1.45;82.94;99673.01;1738464;82;21219;-63
2021/03/05 05:23:24;;;;;;;57.17;20.57;;;;;;;1.50;83.26;99673.83;1740690;82;21481;-64
2021/03/05 05:25:53;;;;;;;51.08;19.85;;;;;;;1.52;83.45;99663.41;1740625;82;21639;-64
2021/03/05 05:28:20;;;;;;;53.38;19.35;;;;;;;1.52;83.04;99668.61;1739292;80;21401;-72
2021/03/05 05:30:49;;;;;;;37.17;16.48;;;;;;;1.52;83.02;99668.61;1737062;82;21181;-71
2021/03/05 05:33:17;;;;;;;48.52;18.00;;;;;;;1.52;83.10;99673.80;1738317;82;21168;-71
2021/03/05 05:35:45;;;;;;;47.48;18.70;;;;;;;1.54;83.26;99682.44;1720637;82;21202;-73
2021/03/05 05:38:13;;;;;;;48.05;19.40;;;;;;;1.55;83.50;99684.17;1706596;84;21218;-71
2021/03/05 05:40:41;;;;;;;50.28;19.05;;;;;;;1.58;83.23;99686.73;1706529;84;21939;-74
2021/03/05 05:43:10;;;;;;;47.62;18.32;;;;;;;1.61;83.19;99685.41;1686124;79;21169;31
2021/03/05 05:45:37;;;;;;;32.65;14.05;;;;;;;1.60;82.96;99685.84;1669364;85;21203;-64
2021/03/05 05:48:08;;;;;;;40.45;17.65;;;;;;;1.59;82.80;99686.73;1731581;82;21581;-64
2021/03/05 05:50:36;;;;;;;47.78;18.60;;;;;;;1.62;83.33;99689.73;1732561;82;22213;-64
2021/03/05 05:53:05;;;;;;;47.80;19.02;;;;;;;1.62;82.96;99688.44;1731439;82;22274;-63
2021/03/05 05:55:32;;;;;;;46.50;18.82;;;;;;;1.59;82.76;99692.37;1731167;82;21182;-63
2021/03/05 05:58:00;;;;;;;55.23;18.60;;;;;;;1.60;83.48;99692.78;1731195;82;21194;-64
2021/03/05 06:00:39;;;;;;;42.17;17.23;;;;;;;1.65;82.96;99702.69;1753936;81;21141;-69
2021/03/05 06:03:07;;;;;;;41.08;16.65;;;;;;;1.65;82.54;99702.24;1719483;82;21161;-70
2021/03/05 06:05:36;;;;;;;47.53;19.17;;;;;;;1.67;82.15;99703.53;1730890;82;21818;-71
2021/03/05 06:08:04;;;;;;;49.40;18.80;;;;;;;1.66;82.02;99705.72;1726345;82;21188;-70
2021/03/05 06:10:32;;;;;;;42.30;17.48;;;;;;;1.65;82.00;99709.17;1731140;82;21121;-69
2021/03/05 06:13:01;;;;;;;46.68;17.77;;;;;;;1.63;81.90;99709.62;1730961;82;21196;-70
2021/03/05 06:15:30;;;;;;;41.42;17.60;;;;;;;1.63;81.60;99706.61;1655593;81;21656;-63
2021/03/05 06:17:58;;;;;;;46.48;15.63;;;;;;;1.60;81.60;99709.20;1733422;82;21400;-65
2021/03/05 06:20:27;;;;;;;46.18;18.40;;;;;;;1.61;81.49;99711.36;1727860;82;21655;-65
2021/03/05 06:23:12;;;;;;;43.95;16.17;;;;;;;1.63;81.30;99713.09;1633663;84;21221;-65
2021/03/05 06:25:39;;;;;;;36.90;15.08;;;;;;;1.66;81.32;99718.70;1719774;83;21218;-64
2021/03/05 06:28:27;;;;;;;38.75;15.93;;;;;;;1.69;81.10;99718.67;1678193;85;21259;-64
2021/03/05 06:30:54;;;;;;;39.03;15.40;;;;;;;1.70;80.73;99722.97;1746976;81;21377;-68
2021/03/05 06:33:26;;;;;;;40.60;16.10;;;;;;;1.73;80.81;99722.12;1760069;80;21192;-70
2021/03/05 06:35:55;;;;;;;38.23;16.65;;;;;;;1.79;80.70;99722.91;1760060;81;21146;-71
2021/03/05 06:38:44;;;;;;;38.30;14.95;;;;;;;1.89;81.23;99721.97;1741359;80;21205;-71
2021/03/05 06:41:26;;;;;;;39.60;16.67;;;;;;;1.97;80.80;99718.44;1698916;84;21240;-69
2021/03/05 06:44:03;;;;;;;36.28;15.48;;;;;;;2.06;80.71;99718.36;1710804;80;21770;-64
2021/03/05 06:46:39;;;;;;;39.55;14.73;;;;;;;2.13;80.15;99722.62;1704282;84;21225;-64
2021/03/05 06:49:10;;;;;;;40.40;16.20;;;;;;;2.19;79.50;99726.92;1663498;84;21179;-64
2021/03/05 06:51:42;;;;;;;38.23;15.80;;;;;;;2.22;78.47;99721.23;1645569;85;21277;-64
2021/03/05 06:54:14;;;;;;;30.27;12.70;;;;;;;2.26;78.91;99722.94;1618488;86;21283;-65
2021/03/05 06:56:49;;;;;;;34.35;14.98;;;;;;;2.33;78.27;99722.44;1653173;84;21399;-65
2021/03/05 06:59:20;;;;;;;35.40;15.32;;;;;;;2.41;78.26;99717.16;1654560;79;21228;-70
2021/03/05 07:01:59;;;;;;;29.32;13.20;;;;;;;2.51;77.36;99720.09;1648026;85;21231;-70
2021/03/05 07:04:30;;;;;;;41.40;14.93;;;;;;;2.55;76.90;99723.06;1655361;86;21165;-70
2021/03/05 07:07:06;;;;;;;35.17;14.18;;;;;;;2.72;76.18;99718.55;1660966;85;21179;-70
2021/03/05 07:09:38;;;;;;;36.25;15.08;;;;;;;2.72;76.18;99718.55;1655998;86;21378;-72
2021/03/05 07:12:18;;;;;;;35.75;14.45;;;;;;;2.73;74.72;99737.60;1657912;85;21229;-70
2021/03/05 07:15:06;;;;;;;33.25;13.85;;;;;;;2.69;74.75;99735.91;1640948;82;21214;-64
2021/03/05 07:17:34;;;;;;;30.82;13.13;;;;;;;2.70;74.61;99730.70;1633099;87;21238;-65
2021/03/05 07:20:06;;;;;;;32.58;14.73;;;;;;;2.73;74.15;99727.20;1628947;87;21166;-65
2021/03/05 07:22:34;;;;;;;36.08;14.35;;;;;;;2.76;74.27;99728.48;1602473;88;22154;-65
2021/03/05 07:25:05;;;;;;;35.70;14.23;;;;;;;2.77;74.64;99731.94;1607003;89;21226;-67
2021/03/05 07:27:38;;;;;;;32.30;13.78;;;;;;;2.82;74.04;99737.50;1604373;89;21210;-67
2021/03/05 07:30:15;;;;;;;32.67;12.63;;;;;;;2.86;75.23;99731.38;1645377;84;21229;-71
2021/03/05 07:32:49;;;;;;;33.70;13.50;;;;;;;2.93;74.29;99733.48;1672469;84;21205;-73
2021/03/05 07:35:28;;;;;;;35.70;14.28;;;;;;;3.01;74.45;99730.77;1674224;85;21415;-73
2021/03/05 07:38:03;;;;;;;25.65;9.73;;;;;;;3.08;74.18;99734.59;1674200;85;21226;-71
2021/03/05 07:40:31;;;;;;;29.37;13.22;;;;;;;3.21;73.95;99726.61;1674383;85;21186;-71
2021/03/05 07:42:59;;;;;;;34.00;13.03;;;;;;;3.21;73.95;99726.61;1691401;83;21207;-71
2021/03/05 07:45:28;;;;;;;33.78;14.45;;;;;;;3.25;73.10;99725.70;1637622;84;21790;-65
2021/03/05 07:47:56;;;;;;;31.65;13.32;;;;;;;3.30;72.22;99729.09;1627961;86;21233;-66
2021/03/05 07:50:25;;;;;;;36.10;13.85;;;;;;;3.33;73.13;99738.15;1650933;86;21279;-67
2021/03/05 07:52:58;;;;;;;34.30;13.50;;;;;;;3.42;73.05;99739.33;1635313;87;21156;-66
2021/03/05 07:55:40;;;;;;;31.95;13.20;;;;;;;3.50;72.38;99741.39;1683882;84;21165;-66
2021/03/05 07:58:07;;;;;;;31.73;12.55;;;;;;;3.54;70.57;99749.58;1678733;84;21634;-67
2021/03/05 08:00:50;;;;;;;31.63;13.47;;;;;;;3.54;70.82;99743.07;1630228;82;21226;-74
2021/03/05 08:03:23;;;;;;;26.62;11.18;;;;;;;3.62;70.35;99746.00;1615450;88;21207;-75
2021/03/05 08:05:52;;;;;;;24.82;11.05;;;;;;;3.74;71.50;99741.90;1616486;88;21654;-73
2021/03/05 08:08:26;;;;;;;27.15;12.90;;;;;;;3.92;71.18;99742.91;1615890;88;21814;-70
2021/03/05 08:11:07;;;;;;;32.78;13.10;;;;;;;4.17;71.22;99736.00;1615871;87;21149;-71
2021/03/05 08:13:58;;;;;;;27.25;12.60;;;;;;;4.47;70.79;99732.44;1615455;88;21899;-68
2021/03/05 08:16:33;;;;;;;26.15;12.55;;;;;;;4.79;68.35;99727.45;1704274;83;21151;-68
2021/03/05 08:19:14;;;;;;;26.45;11.48;;;;;;;5.11;66.47;99724.64;1718102;82;21224;-68
2021/03/05 08:22:02;;;;;;;21.68;10.08;;;;;;;5.33;66.49;99725.47;1685955;83;21195;-68
2021/03/05 08:24:36;;;;;;;28.35;12.28;;;;;;;5.52;65.76;99725.91;1681628;84;21232;-68
2021/03/05 08:27:15;;;;;;;29.85;12.00;;;;;;;5.72;63.25;99735.91;1671158;84;22317;-68
2021/03/05 08:30:08;;;;;;;25.72;11.12;;;;;;;5.82;62.19;99734.78;1695023;81;21162;-70
2021/03/05 08:32:47;;;;;;;25.82;10.88;;;;;;;5.88;61.43;99734.64;1665218;84;21239;-70
2021/03/05 08:35:37;;;;;;;22.27;10.65;;;;;;;6.04;60.98;99735.16;1675293;85;21728;-70
2021/03/05 08:38:15;;;;;;;21.12;10.03;;;;;;;6.14;59.71;99735.78;1680087;84;21192;-70
2021/03/05 08:40:50;;;;;;;24.45;11.00;;;;;;;6.13;58.95;99731.47;1680138;85;21392;-70
2021/03/05 08:43:26;;;;;;;20.52;10.13;;;;;;;6.18;57.40;99734.81;1653128;85;21169;-71
2021/03/05 08:46:09;;;;;;;21.30;9.28;;;;;;;6.18;57.73;99732.20;1620788;83;21946;-67
2021/03/05 08:48:43;;;;;;;18.07;9.08;;;;;;;6.26;57.15;99731.57;1613346;88;21240;-70
2021/03/05 08:51:20;;;;;;;25.15;10.38;;;;;;;6.43;56.51;99728.05;1594650;87;21211;-69
2021/03/05 08:53:55;;;;;;;24.27;10.95;;;;;;;6.59;55.91;99725.03;1588890;88;22825;-69
2021/03/05 08:56:27;;;;;;;20.50;10.10;;;;;;;6.69;55.28;99731.72;1588615;90;21247;-68
2021/03/05 08:59:05;;;;;;;21.50;10.32;;;;;;;6.77;55.26;99731.53;1590908;88;21628;-68
2021/03/05 09:01:38;;;;;;;20.70;9.88;;;;;;;6.85;54.46;99735.62;1760359;79;21222;-69
2021/03/05 09:04:17;;;;;;;20.23;9.58;;;;;;;6.82;51.95;99738.33;1761990;81;21167;-72
2021/03/05 09:06:56;;;;;;;22.87;9.53;;;;;;;6.86;52.06;99745.20;1762236;81;22541;-70
2021/03/05 09:09:27;;;;;;;18.95;9.43;;;;;;;7.00;55.20;99742.20;1762282;81;21608;-70
2021/03/05 09:12:15;;;;;;;19.67;8.95;;;;;;;7.17;52.73;99743.01;1758150;81;21659;-69
2021/03/05 09:14:46;;;;;;;21.05;9.90;;;;;;;7.37;51.73;99742.89;1754811;79;21211;-68
2021/03/05 09:17:15;;;;;;;23.90;7.72;;;;;;;7.42;52.86;99746.22;1702902;84;21157;-68
2021/03/05 09:19:47;;;;;;;16.32;7.53;;;;;;;7.41;51.38;99745.80;1730906;82;21391;-68
2021/03/05 09:22:21;;;;;;;12.73;6.75;;;;;;;7.42;52.76;99748.84;1741495;81;21141;-68
2021/03/05 09:25:03;;;;;;;16.93;7.53;;;;;;;7.39;53.14;99752.41;1768056;79;21148;-68
2021/03/05 09:27:38;;;;;;;17.80;8.75;;;;;;;7.33;51.42;99748.20;1779850;79;21569;-68
2021/03/05 09:30:21;;;;;;;21.62;8.75;;;;;;;7.19;50.41;99757.37;1751225;78;21227;-69
2021/03/05 09:32:52;;;;;;;20.95;8.95;;;;;;;6.99;52.19;99754.02;1714991;82;21369;-70
2021/03/05 09:35:30;;;;;;;18.30;8.03;;;;;;;6.81;50.89;99758.88;1702935;83;21674;-70
2021/03/05 09:37:59;;;;;;;17.90;8.40;;;;;;;6.69;52.08;99764.00;1709524;83;21178;-70
2021/03/05 09:40:30;;;;;;;20.72;8.90;;;;;;;6.55;52.36;99765.25;1676691;83;21649;-70
2021/03/05 09:42:59;;;;;;;;;;;;;;;6.47;52.05;99762.39;1761293;80;21158;-70
2021/03/05 09:45:47;;;;;;;19.75;9.00;;;;;;;6.33;51.85;99763.20;1736184;79;21415;-68
2021/03/05 09:48:32;;;;;;;21.05;8.90;;;;;;;6.05;51.02;99774.34;1683096;84;21196;-67
2021/03/05 09:51:07;;;;;;;21.12;9.30;;;;;;;5.80;52.10;99777.10;1720567;82;21155;-68
2021/03/05 09:53:39;;;;;;;21.57;9.80;;;;;;;5.71;52.97;99781.23;1725043;82;21213;-68
2021/03/05 09:56:08;;;;;;;26.48;9.90;;;;;;;5.54;52.90;99777.67;1723161;82;21203;-68
2021/03/05 09:58:36;;;;;;;19.65;9.03;;;;;;;5.46;53.52;99784.38;1729274;82;21213;-68
2021/03/05 10:01:05;;;;;;;17.02;7.87;;;;;;;5.42;57.05;99791.41;1745096;80;21210;-76
2021/03/05 10:03:33;;;;;;;19.87;8.58;;;;;;;5.48;54.90;99790.43;1751757;80;21203;-70
2021/03/05 10:06:02;;;;;;;21.27;9.28;;;;;;;5.51;56.29;99794.27;1717388;82;21156;-71
2021/03/05 10:08:31;;;;;;;18.12;8.40;;;;;;;5.49;54.63;99792.59;1742810;82;21190;-69
2021/03/05 10:11:11;;;;;;;19.37;7.87;;;;;;;5.47;55.03;99799.14;1747377;80;21423;-76
2021/03/05 10:13:55;;;;;;;16.55;8.40;;;;;;;5.45;55.39;99807.45;1702301;84;21157;-75
2021/03/05 10:16:32;;;;;;;20.32;9.03;;;;;;;5.42;54.74;99802.30;1701413;79;21600;-67
2021/03/05 10:19:05;;;;;;;17.77;7.60;;;;;;;5.41;54.67;99804.52;1663833;86;21199;-67
2021/03/05 10:21:37;;;;;;;20.45;7.72;;;;;;;5.44;58.51;99801.83;1672206;83;21413;-66
2021/03/05 10:24:10;;;;;;;17.80;8.13;;;;;;;5.56;55.82;99800.70;1663652;86;21276;-67
2021/03/05 10:29:41;;;;;;;18.05;8.08;;;;;;;5.79;57.26;99802.80;1664045;83;21236;-70
2021/03/05 10:32:28;;;;;;;17.62;9.13;;;;;;;5.83;54.32;99804.45;1638533;86;21602;-66
2021/03/05 10:35:01;;;;;;;18.05;7.90;;;;;;;5.88;55.08;99803.89;1663559;86;21213;-69
2021/03/05 10:37:29;;;;;;;19.05;8.73;;;;;;;5.98;56.44;99802.84;1627801;86;21419;-70
2021/03/05 10:39:57;;;;;;;19.52;8.58;;;;;;;6.04;54.14;99800.52;1652465;86;21711;-71
2021/03/05 10:42:25;;;;;;;16.05;7.70;;;;;;;6.04;53.96;99804.44;1647201;86;21219;-69
2021/03/05 10:44:53;;;;;;;18.67;8.80;;;;;;;5.99;53.14;99803.23;1659431;81;21460;-66
2021/03/05 10:47:22;;;;;;;19.92;9.28;;;;;;;5.88;53.27;99798.22;1709088;83;21169;-66
2021/03/05 10:49:51;;;;;;;21.55;9.73;;;;;;;5.71;55.26;99802.98;1707413;83;21458;-66
2021/03/05 10:52:23;;;;;;;19.57;9.25;;;;;;;5.41;57.03;99807.12;1674252;85;21208;-66
2021/03/05 10:54:54;;;;;;;22.05;9.80;;;;;;;5.20;58.31;99806.67;1656484;86;21187;-65
2021/03/05 10:57:22;;;;;;;18.45;9.65;;;;;;;4.98;59.82;99802.31;1656728;86;21662;-65
2021/03/05 10:59:50;;;;;;;23.60;10.80;;;;;;;4.84;59.72;99811.70;1651301;79;21008;-74
2021/03/05 11:02:19;;;;;;;22.80;9.65;;;;;;;4.78;60.47;99809.20;1660596;86;21229;-74
2021/03/05 11:04:50;;;;;;;21.33;10.38;;;;;;;4.73;61.68;99813.65;1627142;86;21187;-75
2021/03/05 11:07:21;;;;;;;17.27;8.00;;;;;;;4.77;61.19;99818.38;1644418;86;21210;-76
2021/03/05 11:09:51;;;;;;;17.27;8.13;;;;;;;4.70;63.12;99815.02;1661491;85;21230;-75
2021/03/05 11:12:18;;;;;;;15.15;6.83;;;;;;;4.60;63.18;99816.94;1661876;86;21203;-74
2021/03/05 11:14:47;;;;;;;19.42;8.38;;;;;;;4.53;63.96;99818.36;1664293;81;21398;-65
2021/03/05 11:17:15;;;;;;;19.35;8.53;;;;;;;4.35;65.58;99823.02;1716943;83;21192;-66
2021/03/05 11:19:43;;;;;;;17.90;8.70;;;;;;;4.12;64.85;99825.98;1702439;83;21198;-65
2021/03/05 11:22:11;;;;;;;16.85;7.90;;;;;;;3.90;66.08;99831.95;1715268;82;21844;-66
2021/03/05 11:24:40;;;;;;;16.45;7.53;;;;;;;3.71;66.65;99829.20;1715189;83;21153;-65
2021/03/05 11:27:08;;;;;;;16.90;7.72;;;;;;;3.60;67.28;99829.34;1714608;83;21385;-65
2021/03/05 11:29:44;;;;;;;21.57;8.68;;;;;;;3.63;68.69;99834.94;1705590;83;21220;-66
2021/03/05 11:32:15;;;;;;;16.45;7.00;;;;;;;3.74;68.25;99834.36;1673284;85;21214;-74
2021/03/05 11:34:43;;;;;;;16.48;7.00;;;;;;;3.86;68.33;99830.72;1685056;84;22189;-75
2021/03/05 11:37:11;;;;;;;18.45;8.63;;;;;;;3.99;69.74;99837.48;1696495;84;21220;-75
2021/03/05 11:39:40;;;;;;;18.50;7.72;;;;;;;4.10;67.28;99829.51;1701198;84;21834;-75
2021/03/05 11:42:08;;;;;;;21.20;8.63;;;;;;;4.18;68.27;99834.14;1701674;84;21255;-76
2021/03/05 11:44:36;;;;;;;17.17;8.20;;;;;;;4.21;67.17;99834.12;1697587;83;21156;-75
2021/03/05 11:47:16;;;;;;;15.90;6.62;;;;;;;4.27;67.35;99836.60;1690180;84;21183;-64
2021/03/05 11:49:44;;;;;;;17.87;8.03;;;;;;;4.36;69.13;99835.15;1679362;84;21173;-67
2021/03/05 11:52:12;;;;;;;16.87;7.20;;;;;;;4.35;68.24;99838.66;1676055;84;21670;-67